Time;durP1;ratioP1;P1;durP2;ratioP2;P2;SDS_P1;SDS_P2;PMS_P1;PMS_P2;Temp;Humidity;BMP_temperature;BMP_pressure;BME280_temperature;BME280_humidity;BME280_pressure;Samples;Min_cycle;Max_cycle;Signal;HPM_P1;HPM_P2
2024/01/21 00:01:03;;;;;;;60.47;27.03;;;;;;;-5.55;100.00;101438.09;5040477;28;20294;-62
2024/01/21 00:03:28;;;;;;;61.33;26.90;;;;;;;-5.40;100.00;101445.28;5041946;28;20183;-61
2024/01/21 00:05:53;;;;;;;60.70;27.07;;;;;;;-5.59;100.00;101438.81;5039143;28;20178;-61
2024/01/21 00:08:18;;;;;;;62.90;25.83;;;;;;;-5.62;100.00;101437.03;5034349;28;20205;-61
2024/01/21 00:10:44;;;;;;;62.60;26.83;;;;;;;-5.58;100.00;101430.47;5034240;28;20323;-61
2024/01/21 00:13:09;;;;;;;77.60;29.67;;;;;;;-5.49;100.00;101424.91;5055312;28;20182;-61
2024/01/21 00:15:34;;;;;;;67.17;27.17;;;;;;;-5.37;100.00;101418.66;5032795;28;20178;-62
2024/01/21 00:18:01;;;;;;;60.97;28.20;;;;;;;-5.25;100.00;101415.66;5034454;28;20178;-61
2024/01/21 00:20:30;;;;;;;63.20;26.90;;;;;;;-5.28;100.00;101417.25;5029225;28;20232;-63
2024/01/21 00:22:56;;;;;;;64.03;27.33;;;;;;;-5.25;100.00;101419.84;5057867;28;20405;-62
2024/01/21 00:25:21;;;;;;;57.83;26.13;;;;;;;-5.20;100.00;101410.78;5034174;28;20475;-62
2024/01/21 00:27:46;;;;;;;66.10;27.07;;;;;;;-5.21;100.00;101402.41;5021558;28;20196;-62
2024/01/21 00:30:12;;;;;;;62.27;26.73;;;;;;;-5.24;100.00;101402.31;5036704;28;20178;-62
2024/01/21 00:32:37;;;;;;;58.50;27.10;;;;;;;-5.33;100.00;101406.19;5048130;28;20183;-63
2024/01/21 00:35:03;;;;;;;61.17;25.23;;;;;;;-5.09;100.00;101391.91;5038417;28;20262;-61
2024/01/21 00:37:28;;;;;;;65.53;26.93;;;;;;;-5.13;100.00;101392.63;5032302;28;20570;-63
2024/01/21 00:39:53;;;;;;;61.37;26.20;;;;;;;-5.04;100.00;101399.56;5034317;28;20238;-61
2024/01/21 00:42:19;;;;;;;55.70;27.00;;;;;;;-5.04;100.00;101417.13;5055856;28;20237;-61
2024/01/21 00:44:44;;;;;;;59.60;27.33;;;;;;;-5.17;100.00;101420.94;5033822;28;20249;-61
2024/01/21 00:47:09;;;;;;;58.03;27.07;;;;;;;-5.28;100.00;101425.59;5034113;28;20226;-61
2024/01/21 00:49:34;;;;;;;55.97;28.00;;;;;;;-5.27;100.00;101418.91;5038749;28;20179;-61
2024/01/21 00:52:00;;;;;;;65.20;28.47;;;;;;;-5.28;100.00;101408.03;5054907;28;20632;-61
2024/01/21 00:54:25;;;;;;;64.57;27.70;;;;;;;-5.29;100.00;101406.34;5034940;28;20170;-61
2024/01/21 00:56:50;;;;;;;58.93;25.40;;;;;;;-5.34;100.00;101407.84;5034103;28;20265;-61
2024/01/21 00:59:16;;;;;;;54.67;24.30;;;;;;;-5.56;100.00;101417.19;5033987;28;20287;-61
2024/01/21 01:01:41;;;;;;;68.73;28.07;;;;;;;-5.43;100.00;101415.06;5049713;28;20323;-63
2024/01/21 01:04:07;;;;;;;56.27;25.27;;;;;;;-5.61;100.00;101412.81;5025306;28;20237;-62
2024/01/21 01:06:33;;;;;;;55.73;25.17;;;;;;;-5.71;100.00;101416.69;5033687;28;20182;-61
2024/01/21 01:08:58;;;;;;;55.77;25.73;;;;;;;-5.75;100.00;101410.72;5040447;28;20200;-62
2024/01/21 01:11:24;;;;;;;51.77;24.60;;;;;;;-5.64;100.00;101417.72;5046436;28;20482;-61
2024/01/21 01:13:50;;;;;;;53.63;25.17;;;;;;;-5.48;100.00;101407.41;5037734;28;20281;-63
2024/01/21 01:16:16;;;;;;;49.70;26.37;;;;;;;-5.44;100.00;101401.69;5032444;28;20439;-60
2024/01/21 01:18:41;;;;;;;59.30;25.00;;;;;;;-5.18;100.00;101399.16;5033621;28;20220;-60
2024/01/21 01:21:10;;;;;;;58.80;27.83;;;;;;;-5.19;100.00;101392.44;5039879;28;20244;-62
2024/01/21 01:23:35;;;;;;;62.77;24.53;;;;;;;-5.16;100.00;101394.19;5039205;28;20221;-61
2024/01/21 01:26:00;;;;;;;62.10;25.33;;;;;;;-5.13;100.00;101400.13;5033546;28;20418;-61
2024/01/21 01:28:26;;;;;;;67.67;27.20;;;;;;;-5.07;100.00;101394.47;5037574;28;20199;-60
2024/01/21 01:30:51;;;;;;;55.33;26.00;;;;;;;-5.24;100.00;101396.44;5039192;28;20229;-60
2024/01/21 01:33:16;;;;;;;60.90;26.73;;;;;;;-5.35;100.00;101401.13;5051834;28;20185;-61
2024/01/21 01:35:41;;;;;;;53.83;24.93;;;;;;;-5.28;100.00;101398.00;5065224;28;20521;-61
2024/01/21 01:38:11;;;;;;;64.90;26.27;;;;;;;-5.49;100.00;101392.28;5027402;28;20187;-61
2024/01/21 01:40:36;;;;;;;57.97;26.80;;;;;;;-5.51;100.00;101392.25;5022897;28;20271;-62
2024/01/21 01:43:02;;;;;;;61.47;28.80;;;;;;;-5.50;100.00;101393.97;5049794;28;20453;-61
2024/01/21 01:45:27;;;;;;;60.63;26.83;;;;;;;-5.34;100.00;101395.31;5024516;28;20226;-60
2024/01/21 01:47:53;;;;;;;53.77;25.93;;;;;;;-5.49;100.00;101384.78;5020524;28;20194;-60
2024/01/21 01:50:19;;;;;;;51.70;25.73;;;;;;;-5.44;100.00;101385.81;5028577;28;20174;-60
2024/01/21 01:52:44;;;;;;;58.37;25.00;;;;;;;-5.46;100.00;101387.41;5059919;28;20558;-60
2024/01/21 01:55:10;;;;;;;49.73;24.23;;;;;;;-5.60;100.00;101389.47;5033037;28;20595;-60
2024/01/21 01:57:36;;;;;;;55.93;24.60;;;;;;;-5.58;100.00;101378.69;5029910;28;20272;-60
2024/01/21 02:00:02;;;;;;;57.70;26.57;;;;;;;-5.57;100.00;101379.53;5044949;28;20633;-65
2024/01/21 02:02:28;;;;;;;57.33;26.80;;;;;;;-5.54;100.00;101382.97;4991583;28;20301;-61
2024/01/21 02:04:56;;;;;;;57.93;23.90;;;;;;;-5.44;100.00;101376.59;5019318;28;20508;-60
2024/01/21 02:07:21;;;;;;;57.97;26.93;;;;;;;-5.59;100.00;101376.13;5031354;28;20194;-60
2024/01/21 02:09:46;;;;;;;55.80;24.13;;;;;;;-5.44;100.00;101375.78;5032733;28;20421;-60
2024/01/21 02:12:12;;;;;;;54.97;24.97;;;;;;;-5.32;100.00;101370.28;5052740;28;20223;-61
2024/01/21 02:14:38;;;;;;;49.73;23.33;;;;;;;-5.57;100.00;101360.34;5032233;28;20174;-61
2024/01/21 02:17:03;;;;;;;53.77;23.97;;;;;;;-5.87;100.00;101355.16;5032115;28;20471;-61
2024/01/21 02:19:30;;;;;;;52.20;24.63;;;;;;;-5.81;100.00;101347.84;5032399;28;20202;-62
2024/01/21 02:21:56;;;;;;;55.07;23.17;;;;;;;-5.94;100.00;101339.09;5039041;28;20233;-61
2024/01/21 02:24:28;;;;;;;51.20;23.23;;;;;;;-5.97;100.00;101341.47;5032088;28;20421;-61
2024/01/21 02:26:53;;;;;;;50.37;24.10;;;;;;;-6.00;100.00;101338.91;5030867;28;20265;-60
2024/01/21 02:29:18;;;;;;;47.43;22.90;;;;;;;-6.14;100.00;101340.94;5037075;28;20582;-61
2024/01/21 02:31:43;;;;;;;47.97;21.90;;;;;;;-6.03;100.00;101343.81;5049485;28;20219;-60
2024/01/21 02:34:09;;;;;;;53.73;25.27;;;;;;;-6.11;100.00;101335.22;5023939;28;20187;-60
2024/01/21 02:36:34;;;;;;;47.57;24.80;;;;;;;-6.36;100.00;101325.19;5032649;28;20181;-61
2024/01/21 02:38:59;;;;;;;51.57;23.53;;;;;;;-6.37;100.00;101318.47;5031830;28;20212;-61
2024/01/21 02:41:24;;;;;;;45.53;23.53;;;;;;;-6.21;100.00;101314.00;5043622;28;20620;-61
2024/01/21 02:43:50;;;;;;;46.63;23.20;;;;;;;-6.11;100.00;101322.69;5042214;28;20177;-61
2024/01/21 02:46:17;;;;;;;41.43;22.03;;;;;;;-6.02;100.00;101320.47;5032465;28;20284;-59
2024/01/21 02:48:42;;;;;;;49.77;24.17;;;;;;;-5.94;100.00;101311.53;5032783;28;20210;-61
2024/01/21 02:51:12;;;;;;;48.43;23.10;;;;;;;-5.97;100.00;101313.06;5039307;28;20481;-60
2024/01/21 02:53:37;;;;;;;45.67;23.10;;;;;;;-6.06;100.00;101306.97;5037150;28;20193;-60
2024/01/21 02:56:03;;;;;;;47.93;23.87;;;;;;;-6.04;100.00;101307.91;5032224;28;20405;-60
2024/01/21 02:58:28;;;;;;;48.27;23.70;;;;;;;-6.00;100.00;101308.84;5031788;28;20193;-61
2024/01/21 03:00:53;;;;;;;49.70;23.17;;;;;;;-6.04;100.00;101310.41;5030346;28;20236;-60
2024/01/21 03:03:19;;;;;;;48.27;24.50;;;;;;;-6.02;100.00;101308.78;5043001;28;20175;-60
2024/01/21 03:05:44;;;;;;;47.27;22.90;;;;;;;-6.03;100.00;101309.59;5025439;28;20178;-59
2024/01/21 03:08:09;;;;;;;49.33;24.83;;;;;;;-5.94;100.00;101311.53;5030263;28;20535;-60
2024/01/21 03:10:35;;;;;;;42.67;23.63;;;;;;;-5.99;100.00;101305.56;5030118;28;20228;-60
2024/01/21 03:13:01;;;;;;;49.67;23.93;;;;;;;-5.95;100.00;101302.28;5041573;28;20171;-60
2024/01/21 03:15:26;;;;;;;51.60;23.47;;;;;;;-5.87;100.00;101297.53;5031626;28;20185;-60
2024/01/21 03:17:51;;;;;;;50.77;22.83;;;;;;;-5.84;100.00;101288.44;5031252;28;20915;-61
2024/01/21 03:20:17;;;;;;;50.90;23.10;;;;;;;-5.85;100.00;101298.44;5025170;28;20227;-61
2024/01/21 03:22:42;;;;;;;48.83;23.83;;;;;;;-5.84;100.00;101303.50;5044194;28;20202;-63
2024/01/21 03:25:07;;;;;;;48.47;23.90;;;;;;;-5.80;100.00;101306.94;5031597;28;20190;-61
2024/01/21 03:27:32;;;;;;;46.87;24.80;;;;;;;-5.81;100.00;101290.19;5030583;28;20210;-60
2024/01/21 03:29:58;;;;;;;58.43;26.47;;;;;;;-5.95;100.00;101289.78;5031612;28;20232;-60
2024/01/21 03:32:23;;;;;;;42.17;22.60;;;;;;;-5.94;100.00;101285.59;5052773;28;20228;-60
2024/01/21 03:34:49;;;;;;;44.10;23.07;;;;;;;-5.99;100.00;101280.50;5031334;28;20175;-60
2024/01/21 03:37:14;;;;;;;51.90;23.33;;;;;;;-6.18;100.00;101279.91;5031073;28;20539;-60
2024/01/21 03:39:39;;;;;;;56.27;27.47;;;;;;;-6.27;100.00;101272.06;5031475;28;20679;-60
2024/01/21 03:42:04;;;;;;;55.13;24.40;;;;;;;-6.28;100.00;101269.50;5052824;28;20630;-60
2024/01/21 03:44:30;;;;;;;46.50;24.47;;;;;;;-6.26;100.00;101271.25;5031401;28;20181;-61
2024/01/21 03:46:55;;;;;;;54.07;26.97;;;;;;;-6.27;100.00;101276.22;5030939;28;20230;-60
2024/01/21 03:49:20;;;;;;;50.70;24.83;;;;;;;-6.30;100.00;101266.97;5039002;28;20637;-60
2024/01/21 03:51:45;;;;;;;50.43;24.53;;;;;;;-6.34;100.00;101268.50;5049071;28;20224;-60
2024/01/21 03:54:11;;;;;;;56.83;25.57;;;;;;;-6.32;100.00;101276.91;5036084;28;20197;-60
2024/01/21 03:56:36;;;;;;;50.77;23.87;;;;;;;-6.39;100.00;101282.50;5031244;28;20656;-61
2024/01/21 03:59:01;;;;;;;54.13;24.50;;;;;;;-6.26;100.00;101281.28;5030980;28;20202;-60
2024/01/21 04:01:26;;;;;;;53.13;24.37;;;;;;;-6.27;100.00;101272.06;5042527;28;20224;-63
2024/01/21 04:03:52;;;;;;;52.73;26.90;;;;;;;-6.29;100.00;101277.81;5029539;28;20638;-61
2024/01/21 04:06:17;;;;;;;46.23;23.37;;;;;;;-6.33;100.00;101267.69;5029316;28;20183;-61
2024/01/21 04:08:43;;;;;;;49.70;25.33;;;;;;;-6.47;100.00;101275.53;5031097;28;20197;-62
2024/01/21 04:11:08;;;;;;;54.57;25.17;;;;;;;-6.49;100.00;101275.50;5038118;28;20286;-60
2024/01/21 04:13:33;;;;;;;50.20;22.43;;;;;;;-6.69;100.00;101273.13;5045148;28;20524;-61
2024/01/21 04:15:59;;;;;;;53.93;24.40;;;;;;;-6.77;100.00;101277.03;5029618;28;20182;-61
2024/01/21 04:18:24;;;;;;;46.63;21.83;;;;;;;-6.74;100.00;101271.28;5029605;28;20190;-60
2024/01/21 04:20:50;;;;;;;50.73;24.00;;;;;;;-6.85;100.00;101273.41;5032791;28;20639;-61
2024/01/21 04:23:15;;;;;;;56.53;23.00;;;;;;;-6.88;100.00;101280.81;5049812;28;20186;-61
2024/01/21 04:25:40;;;;;;;43.67;23.03;;;;;;;-6.82;100.00;101276.88;5031014;28;20554;-61
2024/01/21 04:28:05;;;;;;;52.07;23.23;;;;;;;-6.82;100.00;101278.53;5029523;28;20192;-61
2024/01/21 04:30:31;;;;;;;46.27;23.10;;;;;;;-6.90;100.00;101290.75;5004392;28;20232;-61
2024/01/21 04:32:56;;;;;;;44.13;23.27;;;;;;;-6.86;100.00;101291.72;5045582;28;20186;-60
2024/01/21 04:35:21;;;;;;;54.13;24.03;;;;;;;-6.80;100.00;101294.44;5029634;28;20250;-60
2024/01/21 04:37:46;;;;;;;47.17;22.63;;;;;;;-6.88;100.00;101289.16;5032278;28;20711;-61
2024/01/21 04:40:12;;;;;;;51.33;22.87;;;;;;;-6.96;100.00;101285.53;5026695;28;20209;-62
2024/01/21 04:42:37;;;;;;;42.57;21.67;;;;;;;-6.81;100.00;101287.72;5047973;28;20182;-61
2024/01/21 04:45:03;;;;;;;48.73;22.23;;;;;;;-6.69;100.00;101287.31;5033793;28;20178;-61
2024/01/21 04:47:28;;;;;;;49.07;22.60;;;;;;;-6.41;100.00;101288.25;5032755;28;20198;-60
2024/01/21 04:49:53;;;;;;;47.43;22.70;;;;;;;-6.42;100.00;101284.91;5040505;28;20216;-61
2024/01/21 04:52:19;;;;;;;56.90;23.60;;;;;;;-6.50;100.00;101284.66;5055724;28;20239;-61
2024/01/21 04:54:44;;;;;;;55.80;22.23;;;;;;;-6.45;100.00;101287.31;5033883;28;20186;-60
2024/01/21 04:57:09;;;;;;;54.00;24.33;;;;;;;-6.32;100.00;101291.09;5034108;28;20641;-60
2024/01/21 04:59:35;;;;;;;54.43;24.30;;;;;;;-6.21;100.00;101286.44;5033816;28;20204;-61
2024/01/21 05:02:00;;;;;;;49.23;22.60;;;;;;;-6.26;100.00;101291.31;5054764;28;20671;-61
2024/01/21 05:04:25;;;;;;;50.37;22.97;;;;;;;-6.24;100.00;101293.84;5021404;28;20193;-61
2024/01/21 05:06:50;;;;;;;48.80;22.67;;;;;;;-6.24;100.00;101293.84;5033763;28;20182;-61
2024/01/21 05:09:16;;;;;;;54.97;23.97;;;;;;;-6.18;100.00;101289.91;5033697;28;20200;-60
2024/01/21 05:11:41;;;;;;;59.40;24.40;;;;;;;-6.07;100.00;101289.41;5049275;28;20251;-61
2024/01/21 05:14:06;;;;;;;45.53;22.07;;;;;;;-6.05;100.00;101290.31;5034932;28;20237;-61
2024/01/21 05:16:31;;;;;;;51.73;22.07;;;;;;;-5.96;100.00;101268.00;5033483;28;20186;-61
2024/01/21 05:18:57;;;;;;;50.23;23.57;;;;;;;-5.95;100.00;101268.84;5033215;28;20186;-63
2024/01/21 05:21:22;;;;;;;52.17;22.00;;;;;;;-6.14;100.00;101258.28;5044267;28;20220;-68
2024/01/21 05:23:50;;;;;;;46.27;22.07;;;;;;;-5.97;100.00;101262.97;5043899;28;20185;-61
2024/01/21 05:26:15;;;;;;;40.53;19.77;;;;;;;-6.43;100.00;101258.16;5032162;28;20177;-61
2024/01/21 05:28:41;;;;;;;43.97;22.17;;;;;;;-6.61;100.00;101258.41;5033229;28;20417;-61
2024/01/21 05:31:06;;;;;;;42.13;19.03;;;;;;;-6.75;100.00;101252.91;5040088;28;20259;-61
2024/01/21 05:33:31;;;;;;;38.47;18.53;;;;;;;-7.04;100.00;101252.75;5047764;28;20212;-61
2024/01/21 05:35:57;;;;;;;48.10;19.07;;;;;;;-7.07;100.00;101257.66;5033591;28;20606;-61
2024/01/21 05:38:22;;;;;;;45.73;19.00;;;;;;;-6.89;100.00;101262.44;5033247;28;20182;-62
2024/01/21 05:40:47;;;;;;;48.67;19.57;;;;;;;-6.90;100.00;101259.88;5034927;28;20228;-61
2024/01/21 05:43:13;;;;;;;39.03;17.37;;;;;;;-6.96;100.00;101253.00;5052316;28;20657;-61
2024/01/21 05:45:40;;;;;;;39.23;18.10;;;;;;;-7.28;100.00;101252.72;5032622;28;20261;-61
2024/01/21 05:48:06;;;;;;;37.07;16.47;;;;;;;-7.39;100.00;101258.94;5032472;28;20240;-60
2024/01/21 05:50:31;;;;;;;31.07;15.73;;;;;;;-7.48;100.00;101250.31;5038759;28;20553;-60
2024/01/21 05:52:56;;;;;;;30.30;15.90;;;;;;;-7.59;100.00;101248.19;5056312;28;20861;-60
2024/01/21 05:55:21;;;;;;;27.80;13.50;;;;;;;-7.93;100.00;101249.41;5019692;28;20193;-61
2024/01/21 05:57:47;;;;;;;30.07;15.10;;;;;;;-7.89;100.00;101238.72;5019227;28;20685;-62
2024/01/21 06:00:13;;;;;;;35.20;16.43;;;;;;;-7.87;100.00;101242.97;5025198;28;20201;-61
2024/01/21 06:02:38;;;;;;;32.07;15.30;;;;;;;-7.81;100.00;101249.88;5044657;28;20175;-61
2024/01/21 06:05:03;;;;;;;36.00;15.70;;;;;;;-7.91;100.00;101243.66;5020495;28;20224;-61
2024/01/21 06:07:29;;;;;;;28.93;15.10;;;;;;;-7.76;100.00;101247.53;5032778;28;20645;-61
2024/01/21 06:09:54;;;;;;;30.70;15.40;;;;;;;-7.95;100.00;101255.19;5032879;28;20637;-60
2024/01/21 06:12:19;;;;;;;36.73;16.83;;;;;;;-8.05;100.00;101240.63;5041177;28;20225;-61
2024/01/21 06:14:46;;;;;;;31.33;16.13;;;;;;;-8.02;100.00;101245.72;5032334;28;20178;-61
2024/01/21 06:17:11;;;;;;;34.87;17.07;;;;;;;-8.11;100.00;101240.38;5031082;28;20567;-60
2024/01/21 06:19:36;;;;;;;35.47;17.10;;;;;;;-7.88;100.00;101237.94;5031345;28;20456;-60
2024/01/21 06:22:02;;;;;;;34.60;15.80;;;;;;;-7.84;100.00;101245.63;5053569;28;20220;-60
2024/01/21 06:24:27;;;;;;;28.97;16.27;;;;;;;-8.09;100.00;101242.94;5032800;28;20231;-62
2024/01/21 06:26:52;;;;;;;30.37;14.70;;;;;;;-8.21;100.00;101256.63;5030761;28;20692;-61
2024/01/21 06:29:17;;;;;;;32.53;16.20;;;;;;;-8.53;100.00;101256.19;5032436;28;20207;-61
2024/01/21 06:31:43;;;;;;;31.73;14.53;;;;;;;-8.41;100.00;101262.44;5048169;28;20226;-64
2024/01/21 06:34:08;;;;;;;30.57;15.60;;;;;;;-8.15;100.00;101261.00;5033918;28;20173;-61
2024/01/21 06:36:33;;;;;;;33.33;15.23;;;;;;;-8.04;100.00;101263.94;5032295;28;20188;-62
2024/01/21 06:38:59;;;;;;;33.03;16.83;;;;;;;-8.16;100.00;101270.16;5031979;28;20230;-61
2024/01/21 06:41:24;;;;;;;30.43;14.20;;;;;;;-8.19;100.00;101271.66;5043638;28;20231;-61
2024/01/21 06:43:49;;;;;;;31.80;16.13;;;;;;;-8.12;100.00;101271.97;5041462;28;20186;-61
2024/01/21 06:46:15;;;;;;;38.67;17.13;;;;;;;-8.07;100.00;101268.81;5031706;28;20229;-61
2024/01/21 06:48:41;;;;;;;36.23;16.77;;;;;;;-8.15;100.00;101273.50;5032837;28;20683;-61
2024/01/21 06:51:10;;;;;;;39.67;17.83;;;;;;;-8.06;100.00;101263.03;5044169;28;20579;-61
2024/01/21 06:53:38;;;;;;;42.23;16.40;;;;;;;-8.06;100.00;101263.91;5033561;28;20178;-60
2024/01/21 06:56:07;;;;;;;38.67;16.93;;;;;;;-7.89;100.00;101269.53;5031741;28;20879;-61
2024/01/21 06:58:36;;;;;;;33.23;15.33;;;;;;;-7.89;100.00;101263.69;5030328;28;20424;-62
2024/01/21 07:01:02;;;;;;;41.37;16.50;;;;;;;-8.01;100.00;101249.94;5036744;28;20494;-60
2024/01/21 07:03:28;;;;;;;40.20;17.27;;;;;;;-8.04;100.00;101253.97;5038367;28;20428;-62
2024/01/21 07:05:53;;;;;;;45.67;18.97;;;;;;;-7.90;100.00;101242.88;5030258;28;20180;-60
2024/01/21 07:08:18;;;;;;;38.23;18.40;;;;;;;-7.96;100.00;101250.13;5031812;28;20770;-61
2024/01/21 07:10:44;;;;;;;44.00;18.57;;;;;;;-8.02;100.00;101244.91;5032191;28;20227;-61
2024/01/21 07:13:09;;;;;;;52.77;21.90;;;;;;;-8.23;100.00;101257.38;5051951;28;20192;-64
2024/01/21 07:15:35;;;;;;;56.17;21.83;;;;;;;-8.21;100.00;101256.63;5031562;28;20254;-61
2024/01/21 07:18:00;;;;;;;52.17;20.60;;;;;;;-8.13;100.00;101256.94;5031791;28;20342;-61
2024/01/21 07:20:25;;;;;;;44.27;18.70;;;;;;;-7.99;100.00;101264.97;5027387;28;20232;-61
2024/01/21 07:22:50;;;;;;;46.73;19.43;;;;;;;-7.85;100.00;101261.41;5056606;28;20186;-62
2024/01/21 07:25:16;;;;;;;48.33;20.03;;;;;;;-7.85;100.00;101263.91;5031340;28;20182;-61
2024/01/21 07:27:42;;;;;;;42.83;20.30;;;;;;;-7.80;100.00;101264.03;5031546;28;20891;-61
2024/01/21 07:30:10;;;;;;;53.27;20.43;;;;;;;-7.95;100.00;101269.28;5020933;28;20272;-63
2024/01/21 07:32:36;;;;;;;47.60;19.30;;;;;;;-7.79;100.00;101269.13;5060907;28;20436;-61
2024/01/21 07:35:01;;;;;;;50.90;20.50;;;;;;;-7.65;100.00;101272.16;5031138;28;20429;-61
2024/01/21 07:37:27;;;;;;;51.73;19.50;;;;;;;-7.71;100.00;101269.41;5031280;28;20268;-61
2024/01/21 07:39:52;;;;;;;49.33;21.23;;;;;;;-7.79;100.00;101259.13;5031150;28;20202;-63
2024/01/21 07:42:17;;;;;;;48.67;18.17;;;;;;;-7.67;100.00;101273.72;5037267;28;20220;-62
2024/01/21 07:44:42;;;;;;;39.73;16.93;;;;;;;-8.04;100.00;101264.78;5030768;28;20224;-62
2024/01/21 07:47:08;;;;;;;36.97;16.87;;;;;;;-8.18;100.00;101259.25;5030773;28;20232;-62
2024/01/21 07:49:33;;;;;;;36.60;17.80;;;;;;;-7.98;100.00;101264.19;5039745;28;20214;-62
2024/01/21 07:51:58;;;;;;;44.37;19.33;;;;;;;-7.99;100.00;101260.84;5051118;28;20221;-62
2024/01/21 07:54:23;;;;;;;56.10;21.03;;;;;;;-7.92;100.00;101263.59;5032028;28;20178;-62
2024/01/21 07:56:49;;;;;;;39.57;18.63;;;;;;;-7.93;100.00;101259.38;5030695;28;20655;-62
2024/01/21 07:59:14;;;;;;;37.90;17.63;;;;;;;-7.84;100.00;101262.22;5030528;28;20263;-62
2024/01/21 08:01:39;;;;;;;43.60;18.97;;;;;;;-7.59;100.00;101278.19;5046286;28;20227;-62
2024/01/21 08:04:04;;;;;;;38.63;17.77;;;;;;;-7.55;100.00;101272.50;5027597;28;20245;-62
2024/01/21 08:06:30;;;;;;;41.37;18.00;;;;;;;-7.35;100.00;101281.63;5028986;28;20294;-62
2024/01/21 08:08:55;;;;;;;38.33;17.07;;;;;;;-7.16;100.00;101284.81;5030684;28;20188;-62
2024/01/21 08:11:20;;;;;;;37.57;18.83;;;;;;;-6.91;100.00;101298.22;5040909;28;20252;-64
2024/01/21 08:13:46;;;;;;;39.40;17.83;;;;;;;-6.98;100.00;101295.47;5044500;28;20645;-62
2024/01/21 08:16:11;;;;;;;37.27;19.37;;;;;;;-7.21;100.00;101297.13;5034530;28;20677;-62
2024/01/21 08:18:36;;;;;;;36.47;16.30;;;;;;;-7.13;100.00;101297.44;5034540;28;20182;-62
2024/01/21 08:21:01;;;;;;;40.07;18.60;;;;;;;-7.09;100.00;101290.88;5039799;28;20299;-62
2024/01/21 08:23:27;;;;;;;34.13;17.00;;;;;;;-7.09;100.00;101288.38;5050495;28;20174;-61
2024/01/21 08:25:52;;;;;;;36.63;18.27;;;;;;;-6.97;100.00;101287.19;5034468;28;20261;-62
2024/01/21 08:28:18;;;;;;;40.40;19.13;;;;;;;-7.05;100.00;101285.22;5034372;28;20632;-62
2024/01/21 08:30:43;;;;;;;37.57;18.63;;;;;;;-6.77;100.00;101298.69;5004943;28;20244;-62
2024/01/21 08:33:09;;;;;;;40.37;18.43;;;;;;;-6.68;100.00;101292.38;5002406;28;20205;-62
2024/01/21 08:35:36;;;;;;;36.10;17.30;;;;;;;-6.74;100.00;101276.31;5033180;28;20175;-61
2024/01/21 08:38:01;;;;;;;37.37;18.03;;;;;;;-6.64;100.00;101280.81;5031623;28;20413;-62
2024/01/21 08:40:26;;;;;;;34.13;18.33;;;;;;;-6.84;100.00;101265.09;5028110;28;20486;-63
2024/01/21 08:42:51;;;;;;;41.63;19.13;;;;;;;-6.62;100.00;101286.75;5057147;28;20546;-62
2024/01/21 08:45:17;;;;;;;42.73;19.27;;;;;;;-6.40;100.00;101293.34;5032014;28;20182;-63
2024/01/21 08:47:42;;;;;;;36.57;20.50;;;;;;;-6.37;100.00;101288.44;5032220;28;20202;-62
2024/01/21 08:50:08;;;;;;;38.00;18.30;;;;;;;-6.42;100.00;101296.59;5032025;28;20213;-62
2024/01/21 08:52:33;;;;;;;34.23;17.83;;;;;;;-6.68;100.00;101309.06;5046532;28;20495;-63
2024/01/21 08:54:58;;;;;;;39.13;18.70;;;;;;;-6.45;100.00;101329.88;5033541;28;20228;-61
2024/01/21 08:57:24;;;;;;;34.47;17.93;;;;;;;-6.21;100.00;101331.53;5033741;28;20556;-61
2024/01/21 08:59:51;;;;;;;39.60;18.60;;;;;;;-6.24;100.00;101331.41;5033569;28;20201;-61
2024/01/21 09:02:16;;;;;;;39.47;18.77;;;;;;;-5.94;100.00;101336.59;5055649;28;20319;-61
2024/01/21 09:04:41;;;;;;;40.23;18.30;;;;;;;-6.20;100.00;101333.22;5033148;28;20523;-67
2024/01/21 09:07:07;;;;;;;38.83;17.87;;;;;;;-6.07;100.00;101332.84;5033827;28;20610;-61
2024/01/21 09:09:33;;;;;;;42.67;18.43;;;;;;;-6.01;100.00;101307.97;5033546;28;20188;-63
2024/01/21 09:11:59;;;;;;;41.80;20.43;;;;;;;-5.95;100.00;101302.28;5053741;28;20212;-61
2024/01/21 09:14:24;;;;;;;37.37;17.43;;;;;;;-5.77;100.00;101303.69;5034676;28;20435;-61
2024/01/21 09:16:50;;;;;;;39.97;20.30;;;;;;;-5.62;100.00;101311.69;5033432;28;20194;-61
2024/01/21 09:19:15;;;;;;;41.43;19.77;;;;;;;-5.53;100.00;101304.44;5033279;28;20198;-62
2024/01/21 09:21:40;;;;;;;36.57;19.33;;;;;;;-5.65;100.00;101291.53;5025608;28;20711;-61
2024/01/21 09:24:07;;;;;;;46.97;20.07;;;;;;;-5.66;100.00;101282.31;5037925;28;20187;-61
2024/01/21 09:26:32;;;;;;;45.47;19.77;;;;;;;-5.57;100.00;101276.72;5031794;28;20619;-63
2024/01/21 09:28:58;;;;;;;38.77;20.23;;;;;;;-5.64;100.00;101285.72;5033116;28;20435;-61
2024/01/21 09:31:23;;;;;;;42.20;19.07;;;;;;;-5.64;100.00;101314.94;5044153;28;20231;-62
2024/01/21 09:33:49;;;;;;;42.37;19.83;;;;;;;-5.32;100.00;101328.50;5043694;28;20205;-62
2024/01/21 09:36:15;;;;;;;39.80;19.40;;;;;;;-5.37;100.00;101337.50;5032223;28;20184;-62
2024/01/21 09:38:41;;;;;;;36.03;16.83;;;;;;;-5.47;100.00;101355.59;5031532;28;20178;-62
2024/01/21 09:41:41;;;;;;;39.30;18.50;;;;;;;-5.56;100.00;101366.19;5033143;28;20687;-61
2024/01/21 09:44:06;;;;;;;47.77;20.37;;;;;;;-5.70;100.00;101376.63;5028570;28;20429;-61
2024/01/21 09:46:32;;;;;;;40.13;20.80;;;;;;;-5.47;100.00;101379.03;5064883;28;20476;-61
2024/01/21 09:49:00;;;;;;;41.70;19.67;;;;;;;-5.13;100.00;101381.75;5037302;28;20213;-60
2024/01/21 09:51:28;;;;;;;41.63;20.13;;;;;;;-5.03;100.00;101399.59;5060351;28;20571;-63
2024/01/21 09:53:53;;;;;;;42.47;19.50;;;;;;;-4.97;100.00;101398.94;5031490;28;20437;-60
2024/01/21 09:56:18;;;;;;;50.43;20.77;;;;;;;-4.88;100.00;101393.34;5032863;28;20402;-61
2024/01/21 09:58:46;;;;;;;41.97;18.70;;;;;;;-4.90;100.00;101388.28;5032650;28;20186;-61
2024/01/21 10:01:13;;;;;;;43.73;19.40;;;;;;;-4.96;100.00;101368.03;5033896;28;20228;-60
2024/01/21 10:03:39;;;;;;;44.83;21.77;;;;;;;-4.87;100.00;101377.50;5037754;28;20283;-61
2024/01/21 10:06:04;;;;;;;46.93;20.20;;;;;;;-5.02;100.00;101381.25;5032336;28;20425;-60
2024/01/21 10:08:30;;;;;;;42.80;20.53;;;;;;;-4.75;100.00;101384.50;5031519;28;20504;-61
2024/01/21 10:10:55;;;;;;;36.83;18.83;;;;;;;-4.61;100.00;101384.94;5036090;28;20224;-60
2024/01/21 10:13:20;;;;;;;40.47;18.93;;;;;;;-4.48;100.00;101373.56;5050138;28;20194;-60
2024/01/21 10:15:45;;;;;;;41.10;18.67;;;;;;;-4.60;100.00;101361.50;5032474;28;20195;-60
2024/01/21 10:18:11;;;;;;;37.63;18.30;;;;;;;-4.58;100.00;101364.91;5032635;28;20695;-60
2024/01/21 10:20:36;;;;;;;47.20;21.97;;;;;;;-4.36;100.00;101376.41;5030897;28;20775;-61
2024/01/21 10:23:11;;;;;;;46.33;20.47;;;;;;;-4.24;100.00;101391.81;5054533;28;20496;-60
2024/01/21 10:25:47;;;;;;;49.70;22.03;;;;;;;-4.24;100.00;101393.50;5032368;28;20188;-60
2024/01/21 10:28:13;;;;;;;46.50;20.17;;;;;;;-4.40;100.00;101377.97;5030982;28;20220;-62
2024/01/21 10:30:41;;;;;;;43.30;20.70;;;;;;;-4.44;100.00;101363.66;5028510;28;20223;-61
2024/01/21 10:33:07;;;;;;;43.60;20.43;;;;;;;-4.61;100.00;101330.53;5041418;28;20188;-60
2024/01/21 10:35:32;;;;;;;44.73;19.47;;;;;;;-4.80;100.00;101316.63;5032140;28;20198;-61
2024/01/21 10:37:58;;;;;;;48.00;22.03;;;;;;;-4.68;100.00;101312.75;5032237;28;20707;-62
2024/01/21 10:40:24;;;;;;;45.90;22.00;;;;;;;-4.45;100.00;101310.84;5059214;28;20283;-61
2024/01/21 10:42:55;;;;;;;47.57;23.73;;;;;;;-4.46;100.00;101306.66;5057405;28;20186;-61
2024/01/21 10:45:22;;;;;;;43.40;21.37;;;;;;;-4.67;100.00;101302.75;5030053;28;20226;-61
2024/01/21 10:47:49;;;;;;;51.07;22.70;;;;;;;-4.74;100.00;101305.88;5030480;28;20360;-60
2024/01/21 10:50:16;;;;;;;51.00;20.87;;;;;;;-4.71;100.00;101305.97;5032546;28;20196;-60
2024/01/21 10:52:44;;;;;;;41.00;19.70;;;;;;;-4.88;100.00;101300.47;5059664;28;20195;-60
2024/01/21 10:55:10;;;;;;;41.47;19.43;;;;;;;-4.81;100.00;101287.31;5017305;28;20180;-60